Kezdőlap
METAR-TAF:

METAR-TAF

Repülőterek :

Umiujaq, Québec, Kanada

földrajzi szélesség: 56-32N, földrajzi hosszúság: 076-31W, magasság: 71 m

Jelenlegi meteorológiai megfigyelések

A jelentés 4 órával és 26 perccel ezelõtt készült, 21:00 UTC
Nyugat-délnyugati szél 21 kt
Hőmérséklet 1°C
Páratartalom 69%
Légköri nyomás 1020 hPa
Látótávolság: 24.1 km
Kevés felhő 1200 lábon
Szakadozott felhőzet 3500 lábon, Tornyos gomolyfelhő.
Szakadozott felhőzet 24000 lábon
enyhe hózápor

METAR: CYMU 202100Z 24021KT 15SM -SHSN FEW012 BKN035TCU BKN240 01/M04 A3012 RMK ST1TCU6CI1 ST TR LASTOBS/NEXT 21 1200Z SLP207

Idő: 21:26 (01:26 UTC)


TAF: hiányzik

Meteorológiai megfigyelések és előrejelzések több, mint 4000 repülőtéren (METAR és TAF jelentéseket).

A térképen piros és sárga pontok jelzik az elérhető meteorológiai állomásokat.

Mozgassa az egeret a pont fölött, hogy megjelenjen az állomás neve.

Azután kattintson az időjárási megfigyelések és előrejelzések megtekintéséhez.

A térkép megváltoztatása: kattintson a fekete keresztel jelölt zöld gombra ráközelítéshez, a vonallal jelölt zöld gombra távolításhoz, vagy a zöld nyilakra a szomszédos térképek eléréséhez.


METAR-TAF: